sensor_id;sensor_type;location;lat;lon;timestamp;temperature;humidity
27128;DHT22;14660;49.008;8.390;2022-12-11T00:01:21;2.70;99.90
27128;DHT22;14660;49.008;8.390;2022-12-11T00:03:47;2.90;99.90
27128;DHT22;14660;49.008;8.390;2022-12-11T00:06:15;2.80;99.90
27128;DHT22;14660;49.008;8.390;2022-12-11T00:08:41;2.80;99.90
27128;DHT22;14660;49.008;8.390;2022-12-11T00:11:08;2.80;99.90
27128;DHT22;14660;49.008;8.390;2022-12-11T00:13:34;2.80;99.90
27128;DHT22;14660;49.008;8.390;2022-12-11T00:16:00;2.80;99.90
27128;DHT22;14660;49.008;8.390;2022-12-11T00:18:25;2.80;99.90
27128;DHT22;14660;49.008;8.390;2022-12-11T00:20:51;2.70;99.90
27128;DHT22;14660;49.008;8.390;2022-12-11T00:23:17;2.80;99.90
27128;DHT22;14660;49.008;8.390;2022-12-11T00:25:46;2.70;99.90
27128;DHT22;14660;49.008;8.390;2022-12-11T00:28:14;2.70;99.90
27128;DHT22;14660;49.008;8.390;2022-12-11T00:30:41;2.70;99.90
27128;DHT22;14660;49.008;8.390;2022-12-11T00:33:08;2.80;99.90
27128;DHT22;14660;49.008;8.390;2022-12-11T00:36:02;2.80;99.90
27128;DHT22;14660;49.008;8.390;2022-12-11T00:38:28;2.80;99.90
27128;DHT22;14660;49.008;8.390;2022-12-11T00:40:57;2.80;99.90
27128;DHT22;14660;49.008;8.390;2022-12-11T00:43:23;2.70;99.90
27128;DHT22;14660;49.008;8.390;2022-12-11T00:45:49;2.70;99.90
27128;DHT22;14660;49.008;8.390;2022-12-11T00:48:14;2.60;99.90
27128;DHT22;14660;49.008;8.390;2022-12-11T00:50:40;2.60;99.90
27128;DHT22;14660;49.008;8.390;2022-12-11T00:53:06;2.60;99.90
27128;DHT22;14660;49.008;8.390;2022-12-11T00:55:36;2.60;99.90
27128;DHT22;14660;49.008;8.390;2022-12-11T00:58:02;2.50;99.90
27128;DHT22;14660;49.008;8.390;2022-12-11T01:00:28;2.50;99.90
27128;DHT22;14660;49.008;8.390;2022-12-11T01:02:54;2.60;99.90
27128;DHT22;14660;49.008;8.390;2022-12-11T01:05:20;2.60;99.90
27128;DHT22;14660;49.008;8.390;2022-12-11T01:07:46;2.60;99.90
27128;DHT22;14660;49.008;8.390;2022-12-11T01:10:12;2.40;99.90
27128;DHT22;14660;49.008;8.390;2022-12-11T01:13:05;2.50;99.90
27128;DHT22;14660;49.008;8.390;2022-12-11T01:15:39;2.50;99.90
27128;DHT22;14660;49.008;8.390;2022-12-11T01:18:04;2.50;99.90
27128;DHT22;14660;49.008;8.390;2022-12-11T01:20:31;2.50;99.90
27128;DHT22;14660;49.008;8.390;2022-12-11T01:22:59;2.50;99.90
27128;DHT22;14660;49.008;8.390;2022-12-11T01:25:25;2.50;99.90
27128;DHT22;14660;49.008;8.390;2022-12-11T01:27:53;2.40;99.90
27128;DHT22;14660;49.008;8.390;2022-12-11T01:30:21;2.50;99.90
27128;DHT22;14660;49.008;8.390;2022-12-11T01:32:47;2.40;99.90
27128;DHT22;14660;49.008;8.390;2022-12-11T01:35:14;2.50;99.90
27128;DHT22;14660;49.008;8.390;2022-12-11T01:37:40;2.40;99.90
27128;DHT22;14660;49.008;8.390;2022-12-11T01:40:07;2.30;99.90
27128;DHT22;14660;49.008;8.390;2022-12-11T01:42:35;2.30;99.90
27128;DHT22;14660;49.008;8.390;2022-12-11T01:45:32;2.20;99.90
27128;DHT22;14660;49.008;8.390;2022-12-11T01:47:59;2.10;99.90
27128;DHT22;14660;49.008;8.390;2022-12-11T01:50:27;2.00;99.90
27128;DHT22;14660;49.008;8.390;2022-12-11T01:52:53;2.00;99.90
27128;DHT22;14660;49.008;8.390;2022-12-11T01:55:19;1.90;99.90
27128;DHT22;14660;49.008;8.390;2022-12-11T01:57:48;1.90;99.90
27128;DHT22;14660;49.008;8.390;2022-12-11T02:00:16;1.80;99.90
27128;DHT22;14660;49.008;8.390;2022-12-11T02:02:44;1.80;99.90
27128;DHT22;14660;49.008;8.390;2022-12-11T02:05:10;1.80;99.90
27128;DHT22;14660;49.008;8.390;2022-12-11T02:07:46;1.80;99.90
27128;DHT22;14660;49.008;8.390;2022-12-11T02:10:14;1.80;99.90
27128;DHT22;14660;49.008;8.390;2022-12-11T02:13:00;1.70;99.90
27128;DHT22;14660;49.008;8.390;2022-12-11T02:15:36;1.70;99.90
27128;DHT22;14660;49.008;8.390;2022-12-11T02:18:13;1.70;99.90
27128;DHT22;14660;49.008;8.390;2022-12-11T02:23:47;1.80;99.90
27128;DHT22;14660;49.008;8.390;2022-12-11T02:30:10;1.80;99.90
27128;DHT22;14660;49.008;8.390;2022-12-11T02:32:23;1.80;99.90
27128;DHT22;14660;49.008;8.390;2022-12-11T02:35:14;1.80;99.90
27128;DHT22;14660;49.008;8.390;2022-12-11T02:37:44;1.70;99.90
27128;DHT22;14660;49.008;8.390;2022-12-11T02:40:13;1.70;99.90
27128;DHT22;14660;49.008;8.390;2022-12-11T02:42:44;1.60;99.90
27128;DHT22;14660;49.008;8.390;2022-12-11T02:45:12;1.60;99.90
27128;DHT22;14660;49.008;8.390;2022-12-11T02:47:38;1.60;99.90
27128;DHT22;14660;49.008;8.390;2022-12-11T02:50:08;1.70;99.90
27128;DHT22;14660;49.008;8.390;2022-12-11T02:52:35;1.80;99.90
27128;DHT22;14660;49.008;8.390;2022-12-11T02:55:02;1.70;99.90
27128;DHT22;14660;49.008;8.390;2022-12-11T02:57:39;1.60;99.90
27128;DHT22;14660;49.008;8.390;2022-12-11T03:00:09;1.70;99.90
27128;DHT22;14660;49.008;8.390;2022-12-11T03:02:36;1.60;99.90
27128;DHT22;14660;49.008;8.390;2022-12-11T03:05:03;1.70;99.90
27128;DHT22;14660;49.008;8.390;2022-12-11T03:07:32;1.60;99.90
27128;DHT22;14660;49.008;8.390;2022-12-11T03:09:58;1.50;99.90
27128;DHT22;14660;49.008;8.390;2022-12-11T03:12:28;1.50;99.90
27128;DHT22;14660;49.008;8.390;2022-12-11T03:14:55;1.40;99.90
27128;DHT22;14660;49.008;8.390;2022-12-11T03:17:25;1.50;99.90
27128;DHT22;14660;49.008;8.390;2022-12-11T03:20:23;1.50;99.90
27128;DHT22;14660;49.008;8.390;2022-12-11T03:23:00;1.60;99.90
27128;DHT22;14660;49.008;8.390;2022-12-11T03:25:41;1.60;99.90
27128;DHT22;14660;49.008;8.390;2022-12-11T03:28:31;1.50;99.90
27128;DHT22;14660;49.008;8.390;2022-12-11T03:31:03;1.50;99.90
27128;DHT22;14660;49.008;8.390;2022-12-11T03:33:36;1.50;99.90
27128;DHT22;14660;49.008;8.390;2022-12-11T03:36:16;1.50;99.90
27128;DHT22;14660;49.008;8.390;2022-12-11T03:38:52;1.70;99.90
27128;DHT22;14660;49.008;8.390;2022-12-11T03:41:21;1.70;99.90
27128;DHT22;14660;49.008;8.390;2022-12-11T03:43:50;1.70;99.90
27128;DHT22;14660;49.008;8.390;2022-12-11T03:46:18;1.70;99.90
27128;DHT22;14660;49.008;8.390;2022-12-11T03:48:45;1.80;99.90
27128;DHT22;14660;49.008;8.390;2022-12-11T03:51:14;1.80;99.90
27128;DHT22;14660;49.008;8.390;2022-12-11T03:53:42;1.70;99.90
27128;DHT22;14660;49.008;8.390;2022-12-11T03:56:11;1.70;99.90
27128;DHT22;14660;49.008;8.390;2022-12-11T03:58:37;1.70;99.90
27128;DHT22;14660;49.008;8.390;2022-12-11T04:01:08;1.80;99.90
27128;DHT22;14660;49.008;8.390;2022-12-11T04:03:36;1.80;99.90
27128;DHT22;14660;49.008;8.390;2022-12-11T04:06:03;1.80;99.90
27128;DHT22;14660;49.008;8.390;2022-12-11T04:08:29;1.90;99.90
27128;DHT22;14660;49.008;8.390;2022-12-11T04:10:56;1.80;99.90
27128;DHT22;14660;49.008;8.390;2022-12-11T04:13:41;1.80;99.90
27128;DHT22;14660;49.008;8.390;2022-12-11T04:16:08;1.80;99.90
27128;DHT22;14660;49.008;8.390;2022-12-11T04:18:35;1.70;99.90
27128;DHT22;14660;49.008;8.390;2022-12-11T04:21:20;1.80;99.90
27128;DHT22;14660;49.008;8.390;2022-12-11T04:24:07;1.90;99.90
27128;DHT22;14660;49.008;8.390;2022-12-11T04:26:45;1.90;99.90
27128;DHT22;14660;49.008;8.390;2022-12-11T04:29:10;1.80;99.90
27128;DHT22;14660;49.008;8.390;2022-12-11T04:31:38;1.90;99.90
27128;DHT22;14660;49.008;8.390;2022-12-11T04:34:05;2.00;99.90
27128;DHT22;14660;49.008;8.390;2022-12-11T04:36:32;1.90;99.90
27128;DHT22;14660;49.008;8.390;2022-12-11T04:38:57;2.00;99.90
27128;DHT22;14660;49.008;8.390;2022-12-11T04:41:24;1.90;99.90
27128;DHT22;14660;49.008;8.390;2022-12-11T04:43:51;2.00;99.90
27128;DHT22;14660;49.008;8.390;2022-12-11T04:46:20;2.00;99.90
27128;DHT22;14660;49.008;8.390;2022-12-11T04:48:48;2.10;99.90
27128;DHT22;14660;49.008;8.390;2022-12-11T04:51:14;1.90;99.90
27128;DHT22;14660;49.008;8.390;2022-12-11T04:53:41;1.90;99.90
27128;DHT22;14660;49.008;8.390;2022-12-11T04:56:11;1.90;99.90
27128;DHT22;14660;49.008;8.390;2022-12-11T04:58:38;1.90;99.90
27128;DHT22;14660;49.008;8.390;2022-12-11T05:01:23;1.90;99.90
27128;DHT22;14660;49.008;8.390;2022-12-11T05:03:49;2.00;99.90
27128;DHT22;14660;49.008;8.390;2022-12-11T05:06:15;2.10;99.90
27128;DHT22;14660;49.008;8.390;2022-12-11T05:08:42;2.10;99.90
27128;DHT22;14660;49.008;8.390;2022-12-11T05:11:12;2.00;99.90
27128;DHT22;14660;49.008;8.390;2022-12-11T05:13:37;1.90;99.90
27128;DHT22;14660;49.008;8.390;2022-12-11T05:16:05;1.90;99.90
27128;DHT22;14660;49.008;8.390;2022-12-11T05:18:32;1.90;99.90
27128;DHT22;14660;49.008;8.390;2022-12-11T05:21:01;1.80;99.90
27128;DHT22;14660;49.008;8.390;2022-12-11T05:23:28;1.90;99.90
27128;DHT22;14660;49.008;8.390;2022-12-11T05:25:57;1.80;99.90
27128;DHT22;14660;49.008;8.390;2022-12-11T05:28:24;1.80;99.90
27128;DHT22;14660;49.008;8.390;2022-12-11T05:31:03;1.70;99.90
27128;DHT22;14660;49.008;8.390;2022-12-11T05:33:29;1.70;99.90
27128;DHT22;14660;49.008;8.390;2022-12-11T05:35:57;1.80;99.90
27128;DHT22;14660;49.008;8.390;2022-12-11T05:38:23;1.70;99.90
27128;DHT22;14660;49.008;8.390;2022-12-11T05:41:03;1.70;99.90
27128;DHT22;14660;49.008;8.390;2022-12-11T05:43:31;1.60;99.90
27128;DHT22;14660;49.008;8.390;2022-12-11T05:46:16;1.60;99.90
27128;DHT22;14660;49.008;8.390;2022-12-11T05:48:46;1.70;99.90
27128;DHT22;14660;49.008;8.390;2022-12-11T05:51:14;1.90;99.90
27128;DHT22;14660;49.008;8.390;2022-12-11T05:53:42;1.70;99.90
27128;DHT22;14660;49.008;8.390;2022-12-11T05:56:23;1.80;99.90
27128;DHT22;14660;49.008;8.390;2022-12-11T05:58:52;1.80;99.90
27128;DHT22;14660;49.008;8.390;2022-12-11T06:01:22;1.90;99.90
27128;DHT22;14660;49.008;8.390;2022-12-11T06:03:48;1.90;99.90
27128;DHT22;14660;49.008;8.390;2022-12-11T06:06:15;1.90;99.90
27128;DHT22;14660;49.008;8.390;2022-12-11T06:08:40;1.80;99.90
27128;DHT22;14660;49.008;8.390;2022-12-11T06:11:06;1.80;99.90
27128;DHT22;14660;49.008;8.390;2022-12-11T06:13:33;1.80;99.90
27128;DHT22;14660;49.008;8.390;2022-12-11T06:16:05;1.80;99.90
27128;DHT22;14660;49.008;8.390;2022-12-11T06:18:33;1.90;99.90
27128;DHT22;14660;49.008;8.390;2022-12-11T06:21:23;1.90;99.90
27128;DHT22;14660;49.008;8.390;2022-12-11T06:23:52;1.90;99.90
27128;DHT22;14660;49.008;8.390;2022-12-11T06:26:20;1.90;99.90
27128;DHT22;14660;49.008;8.390;2022-12-11T06:28:46;1.80;99.90
27128;DHT22;14660;49.008;8.390;2022-12-11T06:31:13;1.80;99.90
27128;DHT22;14660;49.008;8.390;2022-12-11T06:33:40;1.80;99.90
27128;DHT22;14660;49.008;8.390;2022-12-11T06:36:10;1.90;99.90
27128;DHT22;14660;49.008;8.390;2022-12-11T06:38:36;1.90;99.90
27128;DHT22;14660;49.008;8.390;2022-12-11T06:41:05;1.90;99.90
27128;DHT22;14660;49.008;8.390;2022-12-11T06:43:34;1.90;99.90
27128;DHT22;14660;49.008;8.390;2022-12-11T06:46:09;1.80;99.90
27128;DHT22;14660;49.008;8.390;2022-12-11T06:48:36;1.80;99.90
27128;DHT22;14660;49.008;8.390;2022-12-11T06:51:08;1.70;99.90
27128;DHT22;14660;49.008;8.390;2022-12-11T06:53:35;1.70;99.90
27128;DHT22;14660;49.008;8.390;2022-12-11T06:56:03;1.70;99.90
27128;DHT22;14660;49.008;8.390;2022-12-11T06:58:32;1.70;99.90
27128;DHT22;14660;49.008;8.390;2022-12-11T07:00:58;1.70;99.90
27128;DHT22;14660;49.008;8.390;2022-12-11T07:03:24;1.70;99.90
27128;DHT22;14660;49.008;8.390;2022-12-11T07:05:51;1.70;99.90
27128;DHT22;14660;49.008;8.390;2022-12-11T07:08:18;1.70;99.90
27128;DHT22;14660;49.008;8.390;2022-12-11T07:10:45;1.70;99.90
27128;DHT22;14660;49.008;8.390;2022-12-11T07:13:12;1.70;99.90
27128;DHT22;14660;49.008;8.390;2022-12-11T07:15:38;1.80;99.90
27128;DHT22;14660;49.008;8.390;2022-12-11T07:18:04;1.80;99.90
27128;DHT22;14660;49.008;8.390;2022-12-11T07:20:31;1.60;99.90
27128;DHT22;14660;49.008;8.390;2022-12-11T07:22:58;1.70;99.90
27128;DHT22;14660;49.008;8.390;2022-12-11T07:25:23;1.70;99.90
27128;DHT22;14660;49.008;8.390;2022-12-11T07:27:50;1.70;99.90
27128;DHT22;14660;49.008;8.390;2022-12-11T07:30:17;1.70;99.90
27128;DHT22;14660;49.008;8.390;2022-12-11T07:32:44;1.60;99.90
27128;DHT22;14660;49.008;8.390;2022-12-11T07:35:10;1.60;99.90
27128;DHT22;14660;49.008;8.390;2022-12-11T07:37:39;1.70;99.90
27128;DHT22;14660;49.008;8.390;2022-12-11T07:40:07;1.70;99.90
27128;DHT22;14660;49.008;8.390;2022-12-11T07:42:34;1.80;99.90
27128;DHT22;14660;49.008;8.390;2022-12-11T07:45:01;1.90;99.90
27128;DHT22;14660;49.008;8.390;2022-12-11T07:47:28;1.90;99.90
27128;DHT22;14660;49.008;8.390;2022-12-11T07:49:54;1.90;99.90
27128;DHT22;14660;49.008;8.390;2022-12-11T07:52:22;1.90;99.90
27128;DHT22;14660;49.008;8.390;2022-12-11T07:54:48;1.90;99.90
27128;DHT22;14660;49.008;8.390;2022-12-11T07:57:16;1.90;99.90
27128;DHT22;14660;49.008;8.390;2022-12-11T07:59:43;2.00;99.90
27128;DHT22;14660;49.008;8.390;2022-12-11T08:02:11;2.00;99.90
27128;DHT22;14660;49.008;8.390;2022-12-11T08:04:38;2.00;99.90
27128;DHT22;14660;49.008;8.390;2022-12-11T08:07:03;2.00;99.90
27128;DHT22;14660;49.008;8.390;2022-12-11T08:09:29;2.10;99.90
27128;DHT22;14660;49.008;8.390;2022-12-11T08:11:55;2.00;99.90
27128;DHT22;14660;49.008;8.390;2022-12-11T08:14:22;2.10;99.90
27128;DHT22;14660;49.008;8.390;2022-12-11T08:16:47;2.10;99.90
27128;DHT22;14660;49.008;8.390;2022-12-11T08:19:15;2.10;99.90
27128;DHT22;14660;49.008;8.390;2022-12-11T08:21:42;2.20;99.90
27128;DHT22;14660;49.008;8.390;2022-12-11T08:24:09;2.10;99.90
27128;DHT22;14660;49.008;8.390;2022-12-11T08:26:35;2.10;99.90
27128;DHT22;14660;49.008;8.390;2022-12-11T08:29:02;2.20;99.90
27128;DHT22;14660;49.008;8.390;2022-12-11T08:31:29;2.20;99.90
27128;DHT22;14660;49.008;8.390;2022-12-11T08:33:56;2.30;99.90
27128;DHT22;14660;49.008;8.390;2022-12-11T08:36:22;2.20;99.90
27128;DHT22;14660;49.008;8.390;2022-12-11T08:38:50;2.20;99.90
27128;DHT22;14660;49.008;8.390;2022-12-11T08:41:25;2.30;99.90
27128;DHT22;14660;49.008;8.390;2022-12-11T08:43:53;2.30;99.90
27128;DHT22;14660;49.008;8.390;2022-12-11T08:46:28;2.20;99.90
27128;DHT22;14660;49.008;8.390;2022-12-11T08:48:54;2.30;99.90
27128;DHT22;14660;49.008;8.390;2022-12-11T08:51:23;2.20;99.90
27128;DHT22;14660;49.008;8.390;2022-12-11T08:53:53;2.30;99.90
27128;DHT22;14660;49.008;8.390;2022-12-11T08:56:20;2.30;99.90
27128;DHT22;14660;49.008;8.390;2022-12-11T08:58:50;2.40;99.90
27128;DHT22;14660;49.008;8.390;2022-12-11T09:01:19;2.40;99.90
27128;DHT22;14660;49.008;8.390;2022-12-11T09:03:50;2.50;99.90
27128;DHT22;14660;49.008;8.390;2022-12-11T09:06:19;2.50;99.90
27128;DHT22;14660;49.008;8.390;2022-12-11T09:08:47;2.60;99.90
27128;DHT22;14660;49.008;8.390;2022-12-11T09:11:16;2.70;99.90
27128;DHT22;14660;49.008;8.390;2022-12-11T09:13:43;2.80;99.90
27128;DHT22;14660;49.008;8.390;2022-12-11T09:16:13;2.80;99.90
27128;DHT22;14660;49.008;8.390;2022-12-11T09:18:39;2.80;99.90
27128;DHT22;14660;49.008;8.390;2022-12-11T09:21:09;2.80;99.90
27128;DHT22;14660;49.008;8.390;2022-12-11T09:23:36;2.80;99.90
27128;DHT22;14660;49.008;8.390;2022-12-11T09:26:09;2.70;99.90
27128;DHT22;14660;49.008;8.390;2022-12-11T09:28:37;2.70;99.90
27128;DHT22;14660;49.008;8.390;2022-12-11T09:31:21;2.70;99.90
27128;DHT22;14660;49.008;8.390;2022-12-11T09:33:50;2.60;99.90
27128;DHT22;14660;49.008;8.390;2022-12-11T09:36:18;2.60;99.90
27128;DHT22;14660;49.008;8.390;2022-12-11T09:38:44;2.60;99.90
27128;DHT22;14660;49.008;8.390;2022-12-11T09:41:36;2.60;99.90
27128;DHT22;14660;49.008;8.390;2022-12-11T09:44:30;2.60;99.90
27128;DHT22;14660;49.008;8.390;2022-12-11T09:46:58;2.70;99.90
27128;DHT22;14660;49.008;8.390;2022-12-11T09:49:42;2.80;99.90
27128;DHT22;14660;49.008;8.390;2022-12-11T09:52:31;2.70;99.90
27128;DHT22;14660;49.008;8.390;2022-12-11T09:55:00;2.80;99.90
27128;DHT22;14660;49.008;8.390;2022-12-11T09:57:47;2.90;99.90
27128;DHT22;14660;49.008;8.390;2022-12-11T10:06:41;2.90;99.90
27128;DHT22;14660;49.008;8.390;2022-12-11T10:17:43;3.00;99.90
27128;DHT22;14660;49.008;8.390;2022-12-11T10:20:33;3.10;99.90
27128;DHT22;14660;49.008;8.390;2022-12-11T10:23:04;3.10;99.90
27128;DHT22;14660;49.008;8.390;2022-12-11T10:25:36;3.10;99.90
27128;DHT22;14660;49.008;8.390;2022-12-11T10:28:11;3.20;99.90
27128;DHT22;14660;49.008;8.390;2022-12-11T10:31:04;3.20;99.90
27128;DHT22;14660;49.008;8.390;2022-12-11T10:36:12;3.20;99.90
27128;DHT22;14660;49.008;8.390;2022-12-11T10:38:44;3.20;99.90
27128;DHT22;14660;49.008;8.390;2022-12-11T10:41:13;3.30;99.90
27128;DHT22;14660;49.008;8.390;2022-12-11T10:43:45;3.30;99.90
27128;DHT22;14660;49.008;8.390;2022-12-11T10:46:21;3.40;99.90
27128;DHT22;14660;49.008;8.390;2022-12-11T10:48:52;3.30;99.90
27128;DHT22;14660;49.008;8.390;2022-12-11T10:51:21;3.20;99.90
27128;DHT22;14660;49.008;8.390;2022-12-11T10:53:51;3.10;99.90
27128;DHT22;14660;49.008;8.390;2022-12-11T10:56:27;3.20;99.90
27128;DHT22;14660;49.008;8.390;2022-12-11T10:58:56;3.30;99.90
27128;DHT22;14660;49.008;8.390;2022-12-11T11:01:27;3.30;99.90
27128;DHT22;14660;49.008;8.390;2022-12-11T11:04:14;3.30;99.90
27128;DHT22;14660;49.008;8.390;2022-12-11T11:06:44;3.40;99.90
27128;DHT22;14660;49.008;8.390;2022-12-11T11:09:34;3.40;99.90
27128;DHT22;14660;49.008;8.390;2022-12-11T11:12:00;3.50;99.90
27128;DHT22;14660;49.008;8.390;2022-12-11T11:14:27;3.40;99.90
27128;DHT22;14660;49.008;8.390;2022-12-11T11:16:56;3.50;99.90
27128;DHT22;14660;49.008;8.390;2022-12-11T11:19:35;3.40;99.90
27128;DHT22;14660;49.008;8.390;2022-12-11T11:22:14;3.50;99.90
27128;DHT22;14660;49.008;8.390;2022-12-11T11:25:00;3.60;99.90
27128;DHT22;14660;49.008;8.390;2022-12-11T11:28:01;3.60;99.90
27128;DHT22;14660;49.008;8.390;2022-12-11T11:30:54;3.60;99.90
27128;DHT22;14660;49.008;8.390;2022-12-11T11:33:23;3.60;99.90
27128;DHT22;14660;49.008;8.390;2022-12-11T11:36:16;3.60;99.90
27128;DHT22;14660;49.008;8.390;2022-12-11T11:41:59;3.60;99.90
27128;DHT22;14660;49.008;8.390;2022-12-11T11:44:42;3.60;99.90
27128;DHT22;14660;49.008;8.390;2022-12-11T11:47:19;3.60;99.90
27128;DHT22;14660;49.008;8.390;2022-12-11T11:52:49;3.60;99.90
27128;DHT22;14660;49.008;8.390;2022-12-11T11:58:48;3.60;99.90
27128;DHT22;14660;49.008;8.390;2022-12-11T12:01:18;3.60;99.90
27128;DHT22;14660;49.008;8.390;2022-12-11T12:03:47;3.60;99.90
27128;DHT22;14660;49.008;8.390;2022-12-11T12:11:59;3.60;99.90
27128;DHT22;14660;49.008;8.390;2022-12-11T12:14:57;3.70;99.90
27128;DHT22;14660;49.008;8.390;2022-12-11T12:17:53;3.70;99.90
27128;DHT22;14660;49.008;8.390;2022-12-11T12:26:25;3.50;99.90
27128;DHT22;14660;49.008;8.390;2022-12-11T12:40:33;3.80;99.90
27128;DHT22;14660;49.008;8.390;2022-12-11T12:46:27;3.80;99.90
27128;DHT22;14660;49.008;8.390;2022-12-11T12:48:59;3.70;99.90
27128;DHT22;14660;49.008;8.390;2022-12-11T12:51:27;3.70;99.90
27128;DHT22;14660;49.008;8.390;2022-12-11T12:53:58;3.60;99.90
27128;DHT22;14660;49.008;8.390;2022-12-11T12:56:28;3.70;99.90
27128;DHT22;14660;49.008;8.390;2022-12-11T12:58:56;3.70;99.90
27128;DHT22;14660;49.008;8.390;2022-12-11T13:01:23;3.80;99.90
27128;DHT22;14660;49.008;8.390;2022-12-11T13:04:22;3.70;99.90
27128;DHT22;14660;49.008;8.390;2022-12-11T13:06:49;3.70;99.90
27128;DHT22;14660;49.008;8.390;2022-12-11T13:09:34;3.70;99.90
27128;DHT22;14660;49.008;8.390;2022-12-11T13:12:13;3.70;99.90
27128;DHT22;14660;49.008;8.390;2022-12-11T13:14:41;3.80;99.90
27128;DHT22;14660;49.008;8.390;2022-12-11T13:17:33;3.70;99.90
27128;DHT22;14660;49.008;8.390;2022-12-11T13:20:14;3.70;99.90
27128;DHT22;14660;49.008;8.390;2022-12-11T13:22:55;3.70;99.90
27128;DHT22;14660;49.008;8.390;2022-12-11T13:25:31;3.70;99.90
27128;DHT22;14660;49.008;8.390;2022-12-11T13:28:29;3.60;99.90
27128;DHT22;14660;49.008;8.390;2022-12-11T13:33:50;3.50;99.90
27128;DHT22;14660;49.008;8.390;2022-12-11T13:36:38;3.50;99.90
27128;DHT22;14660;49.008;8.390;2022-12-11T13:39:26;3.50;99.90
27128;DHT22;14660;49.008;8.390;2022-12-11T13:41:58;3.50;99.90
27128;DHT22;14660;49.008;8.390;2022-12-11T13:44:32;3.40;99.90
27128;DHT22;14660;49.008;8.390;2022-12-11T13:47:02;3.30;99.90
27128;DHT22;14660;49.008;8.390;2022-12-11T13:49:42;3.30;99.90
27128;DHT22;14660;49.008;8.390;2022-12-11T13:52:21;3.30;99.90
27128;DHT22;14660;49.008;8.390;2022-12-11T13:54:51;3.40;99.90
27128;DHT22;14660;49.008;8.390;2022-12-11T13:57:43;3.40;99.90
27128;DHT22;14660;49.008;8.390;2022-12-11T14:00:24;3.40;99.90
27128;DHT22;14660;49.008;8.390;2022-12-11T14:02:52;3.50;99.90
27128;DHT22;14660;49.008;8.390;2022-12-11T14:05:20;3.40;99.90
27128;DHT22;14660;49.008;8.390;2022-12-11T14:08:08;3.40;99.90
27128;DHT22;14660;49.008;8.390;2022-12-11T14:10:36;3.40;99.90
27128;DHT22;14660;49.008;8.390;2022-12-11T14:13:15;3.30;99.90
27128;DHT22;14660;49.008;8.390;2022-12-11T14:15:47;3.30;99.90
27128;DHT22;14660;49.008;8.390;2022-12-11T14:18:23;3.30;99.90
27128;DHT22;14660;49.008;8.390;2022-12-11T14:21:01;3.30;99.90
27128;DHT22;14660;49.008;8.390;2022-12-11T14:23:30;3.30;99.90
27128;DHT22;14660;49.008;8.390;2022-12-11T14:26:16;3.40;99.90
27128;DHT22;14660;49.008;8.390;2022-12-11T14:28:43;3.40;99.90
27128;DHT22;14660;49.008;8.390;2022-12-11T14:31:14;3.50;99.90
27128;DHT22;14660;49.008;8.390;2022-12-11T14:33:54;3.50;99.90
27128;DHT22;14660;49.008;8.390;2022-12-11T14:36:24;3.40;99.90
27128;DHT22;14660;49.008;8.390;2022-12-11T14:38:58;3.50;99.90
27128;DHT22;14660;49.008;8.390;2022-12-11T14:41:46;3.50;99.90
27128;DHT22;14660;49.008;8.390;2022-12-11T14:44:15;3.50;99.90
27128;DHT22;14660;49.008;8.390;2022-12-11T14:47:01;3.50;99.90
27128;DHT22;14660;49.008;8.390;2022-12-11T14:49:37;3.30;99.90
27128;DHT22;14660;49.008;8.390;2022-12-11T14:52:17;3.40;99.90
27128;DHT22;14660;49.008;8.390;2022-12-11T14:54:53;3.30;99.90
27128;DHT22;14660;49.008;8.390;2022-12-11T14:57:23;3.30;99.90
27128;DHT22;14660;49.008;8.390;2022-12-11T14:59:53;3.40;99.90
27128;DHT22;14660;49.008;8.390;2022-12-11T15:02:37;3.30;99.90
27128;DHT22;14660;49.008;8.390;2022-12-11T15:05:18;3.20;99.90
27128;DHT22;14660;49.008;8.390;2022-12-11T15:11:14;3.20;99.90
27128;DHT22;14660;49.008;8.390;2022-12-11T15:14:02;3.20;99.90
27128;DHT22;14660;49.008;8.390;2022-12-11T15:16:32;3.20;99.90
27128;DHT22;14660;49.008;8.390;2022-12-11T15:19:00;3.10;99.90
27128;DHT22;14660;49.008;8.390;2022-12-11T15:21:33;3.10;99.90
27128;DHT22;14660;49.008;8.390;2022-12-11T15:24:03;3.20;99.90
27128;DHT22;14660;49.008;8.390;2022-12-11T15:26:47;3.20;99.90
27128;DHT22;14660;49.008;8.390;2022-12-11T15:29:36;3.20;99.90
27128;DHT22;14660;49.008;8.390;2022-12-11T15:34:45;3.20;99.90
27128;DHT22;14660;49.008;8.390;2022-12-11T15:39:59;3.20;99.90
27128;DHT22;14660;49.008;8.390;2022-12-11T15:42:45;3.10;99.90
27128;DHT22;14660;49.008;8.390;2022-12-11T15:45:25;3.10;99.90
27128;DHT22;14660;49.008;8.390;2022-12-11T15:47:54;3.20;99.90
27128;DHT22;14660;49.008;8.390;2022-12-11T15:50:23;3.20;99.90
27128;DHT22;14660;49.008;8.390;2022-12-11T15:52:51;3.20;99.90
27128;DHT22;14660;49.008;8.390;2022-12-11T15:55:18;3.30;99.90
27128;DHT22;14660;49.008;8.390;2022-12-11T15:57:52;3.20;99.90
27128;DHT22;14660;49.008;8.390;2022-12-11T16:00:20;3.10;99.90
27128;DHT22;14660;49.008;8.390;2022-12-11T16:02:47;3.20;99.90
27128;DHT22;14660;49.008;8.390;2022-12-11T16:05:13;3.30;99.90
27128;DHT22;14660;49.008;8.390;2022-12-11T16:07:40;3.30;99.90
27128;DHT22;14660;49.008;8.390;2022-12-11T16:10:13;3.30;99.90
27128;DHT22;14660;49.008;8.390;2022-12-11T16:12:40;3.30;99.90
27128;DHT22;14660;49.008;8.390;2022-12-11T16:15:13;3.20;99.90
27128;DHT22;14660;49.008;8.390;2022-12-11T16:17:41;3.20;99.90
27128;DHT22;14660;49.008;8.390;2022-12-11T16:20:08;3.20;99.90
27128;DHT22;14660;49.008;8.390;2022-12-11T16:22:35;3.20;99.90
27128;DHT22;14660;49.008;8.390;2022-12-11T16:25:01;3.20;99.90
27128;DHT22;14660;49.008;8.390;2022-12-11T16:27:28;3.10;99.90
27128;DHT22;14660;49.008;8.390;2022-12-11T16:29:53;3.20;99.90
27128;DHT22;14660;49.008;8.390;2022-12-11T16:32:20;3.20;99.90
27128;DHT22;14660;49.008;8.390;2022-12-11T16:34:46;3.20;99.90
27128;DHT22;14660;49.008;8.390;2022-12-11T16:37:12;3.30;99.90
27128;DHT22;14660;49.008;8.390;2022-12-11T16:39:38;3.30;99.90
27128;DHT22;14660;49.008;8.390;2022-12-11T16:42:08;3.20;99.90
27128;DHT22;14660;49.008;8.390;2022-12-11T16:44:33;3.20;99.90
27128;DHT22;14660;49.008;8.390;2022-12-11T16:46:59;3.20;99.90
27128;DHT22;14660;49.008;8.390;2022-12-11T16:49:26;3.10;99.90
27128;DHT22;14660;49.008;8.390;2022-12-11T16:51:53;3.20;99.90
27128;DHT22;14660;49.008;8.390;2022-12-11T16:54:19;3.30;99.90
27128;DHT22;14660;49.008;8.390;2022-12-11T16:56:46;3.20;99.90
27128;DHT22;14660;49.008;8.390;2022-12-11T16:59:12;3.20;99.90
27128;DHT22;14660;49.008;8.390;2022-12-11T17:01:39;3.20;99.90
27128;DHT22;14660;49.008;8.390;2022-12-11T17:04:05;3.10;99.90
27128;DHT22;14660;49.008;8.390;2022-12-11T17:06:31;3.00;99.90
27128;DHT22;14660;49.008;8.390;2022-12-11T17:08:58;3.00;99.90
27128;DHT22;14660;49.008;8.390;2022-12-11T17:11:25;3.00;99.90
27128;DHT22;14660;49.008;8.390;2022-12-11T17:13:54;3.00;99.90
27128;DHT22;14660;49.008;8.390;2022-12-11T17:16:24;3.00;99.90
27128;DHT22;14660;49.008;8.390;2022-12-11T17:18:52;3.00;99.90
27128;DHT22;14660;49.008;8.390;2022-12-11T17:21:20;3.00;99.90
27128;DHT22;14660;49.008;8.390;2022-12-11T17:23:48;3.10;99.90